Terminal Aerodrome Forecast
Issued by NWS

Home | Current Version | Previous Version | Text Only | Print | Product List | Glossary On
Versions: 1 2 3 4 5 6 7 8 9 10 11 12 13 14 15 16 17 18 19 20 21 22
000
FTUS42 KGSP 010539
TAFHKY
TAF
KHKY 010539Z 0106/0206 00000KT P6SM BKN100
     FM011500 19008KT P6SM BKN200
     FM020000 18007KT P6SM OVC015
     FM020100 18006KT 3SM -RA OVC015 WS020/20035KT
     FM020500 19010KT 1SM -RA BR OVC008=

USA.gov is the U.S. government's official web portal to all federal, state and local government web resources and services.